Time;durP1;ratioP1;P1;durP2;ratioP2;P2;SDS_P1;SDS_P2;PMS_P1;PMS_P2;Temp;Humidity;BMP_temperature;BMP_pressure;BME280_temperature;BME280_humidity;BME280_pressure;Samples;Min_cycle;Max_cycle;Signal;HPM_P1;HPM_P2
2023/08/17 00:02:23;;;;;;;16.17;8.02;;;;;;;;;;7370771;19;20002;-76
2023/08/17 00:04:49;;;;;;;15.15;8.20;;;;;;;;;;7368874;19;20464;-75
2023/08/17 00:07:14;;;;;;;14.15;7.18;;;;;;;;;;7393817;19;20002;-76
2023/08/17 00:09:39;;;;;;;11.82;7.07;;;;;;;;;;7368917;19;20013;-76
2023/08/17 00:12:05;;;;;;;10.57;7.50;;;;;;;;;;7371548;19;20007;-76
2023/08/17 00:14:30;;;;;;;14.23;7.28;;;;;;;;;;7371033;19;20416;-76
2023/08/17 00:16:56;;;;;;;13.48;7.22;;;;;;;;;;7371638;19;20001;-76
2023/08/17 00:19:21;;;;;;;11.27;7.03;;;;;;;;;;7393134;19;20682;-77
2023/08/17 00:21:46;;;;;;;12.80;7.25;;;;;;;;;;7371421;19;20019;-76
2023/08/17 00:24:12;;;;;;;10.85;6.38;;;;;;;;;;7369814;19;20420;-76
2023/08/17 00:26:37;;;;;;;10.25;6.70;;;;;;;;;;7370859;19;20006;-75
2023/08/17 00:29:03;;;;;;;9.55;6.25;;;;;;;;;;7371264;19;20007;-75
2023/08/17 00:31:29;;;;;;;13.00;5.90;;;;;;;;;;7392142;19;20012;-75
2023/08/17 00:33:54;;;;;;;9.77;5.65;;;;;;;;;;7369050;19;20031;-75
2023/08/17 00:36:19;;;;;;;8.93;5.20;;;;;;;;;;7371184;19;20003;-75
2023/08/17 00:38:45;;;;;;;9.02;5.25;;;;;;;;;;7368929;19;20006;-76
2023/08/17 00:41:10;;;;;;;14.48;5.53;;;;;;;;;;7368823;19;20011;-75
2023/08/17 00:43:36;;;;;;;11.65;5.03;;;;;;;;;;7389462;19;20349;-75
2023/08/17 00:46:02;;;;;;;9.35;4.93;;;;;;;;;;7367454;19;20069;-75
2023/08/17 00:48:29;;;;;;;13.52;5.22;;;;;;;;;;7367773;19;20410;-75
2023/08/17 00:50:56;;;;;;;10.10;5.40;;;;;;;;;;7367432;19;20006;-76
2023/08/17 00:53:22;;;;;;;9.05;5.25;;;;;;;;;;7366430;19;20607;-76
2023/08/17 00:55:47;;;;;;;12.90;6.47;;;;;;;;;;7367919;19;20006;-75
2023/08/17 00:58:14;;;;;;;18.02;8.13;;;;;;;;;;7389707;19;20015;-74
2023/08/17 01:00:40;;;;;;;16.42;9.18;;;;;;;;;;7370153;19;20034;-76
2023/08/17 01:03:08;;;;;;;22.73;10.63;;;;;;;;;;7369421;19;19998;-75
2023/08/17 01:05:34;;;;;;;24.73;14.35;;;;;;;;;;7367943;19;20354;-75
2023/08/17 01:08:00;;;;;;;31.20;17.40;;;;;;;;;;7370493;19;20038;-74
2023/08/17 01:10:44;;;;;;;30.27;16.70;;;;;;;;;;7391758;19;20496;-76
2023/08/17 01:13:17;;;;;;;31.05;18.27;;;;;;;;;;7367727;19;20108;-75
2023/08/17 01:15:50;;;;;;;35.05;19.23;;;;;;;;;;7367628;19;20006;-76
2023/08/17 01:18:26;;;;;;;38.78;19.55;;;;;;;;;;7370731;19;20019;-75
2023/08/17 01:20:52;;;;;;;34.50;20.73;;;;;;;;;;7369886;19;20095;-75
2023/08/17 01:23:18;;;;;;;31.42;20.67;;;;;;;;;;7370000;19;20021;-76
2023/08/17 01:25:44;;;;;;;34.13;20.85;;;;;;;;;;7368154;19;20086;-76
2023/08/17 01:28:09;;;;;;;32.55;20.58;;;;;;;;;;7390558;19;20452;-76
2023/08/17 01:30:55;;;;;;;37.70;20.20;;;;;;;;;;7368406;19;20400;-76
2023/08/17 01:33:27;;;;;;;36.85;20.60;;;;;;;;;;7368042;19;20019;-76
2023/08/17 01:36:01;;;;;;;32.97;20.25;;;;;;;;;;7367947;19;20474;-75
2023/08/17 01:38:29;;;;;;;32.67;18.85;;;;;;;;;;7369043;19;20015;-75
2023/08/17 01:40:56;;;;;;;35.40;18.08;;;;;;;;;;7369296;19;20006;-75
2023/08/17 01:43:21;;;;;;;31.23;17.25;;;;;;;;;;7395539;19;20043;-75
2023/08/17 01:45:47;;;;;;;28.10;15.55;;;;;;;;;;7383299;19;20041;-76
2023/08/17 01:48:13;;;;;;;28.85;14.40;;;;;;;;;;7386152;19;20014;-76
2023/08/17 01:50:38;;;;;;;19.98;12.60;;;;;;;;;;7384133;19;20011;-76
2023/08/17 01:53:03;;;;;;;21.17;11.75;;;;;;;;;;7372638;19;21059;-76
2023/08/17 01:55:29;;;;;;;19.60;10.57;;;;;;;;;;7392985;19;20007;-76
2023/08/17 01:57:54;;;;;;;18.98;11.32;;;;;;;;;;7402977;19;20018;-76
2023/08/17 02:00:19;;;;;;;18.25;11.10;;;;;;;;;;7402408;19;20018;-76
2023/08/17 02:02:45;;;;;;;19.73;11.70;;;;;;;;;;7384906;19;20046;-76
2023/08/17 02:05:10;;;;;;;24.35;11.80;;;;;;;;;;7368924;19;20010;-77
2023/08/17 02:07:36;;;;;;;21.13;11.57;;;;;;;;;;7391401;19;20078;-76
2023/08/17 02:10:01;;;;;;;18.60;11.90;;;;;;;;;;7369293;19;20335;-77
2023/08/17 02:12:27;;;;;;;17.25;11.50;;;;;;;;;;7367547;19;20576;-75
2023/08/17 02:14:53;;;;;;;18.48;10.90;;;;;;;;;;7367253;19;20025;-76
2023/08/17 02:17:19;;;;;;;15.00;9.98;;;;;;;;;;7368503;19;20010;-76
2023/08/17 02:19:44;;;;;;;14.48;9.90;;;;;;;;;;7368261;19;20479;-76
2023/08/17 02:22:09;;;;;;;17.30;10.63;;;;;;;;;;7389269;19;20491;-76
2023/08/17 02:24:35;;;;;;;17.00;9.82;;;;;;;;;;7359584;19;20014;-76
2023/08/17 02:27:00;;;;;;;19.40;10.98;;;;;;;;;;7368243;19;20002;-76
2023/08/17 02:29:25;;;;;;;20.92;11.38;;;;;;;;;;7367693;19;20014;-76
2023/08/17 02:31:51;;;;;;;22.45;12.10;;;;;;;;;;7367020;19;20027;-76
2023/08/17 02:34:16;;;;;;;25.27;12.85;;;;;;;;;;7396508;19;20033;-76
2023/08/17 02:36:41;;;;;;;24.63;11.98;;;;;;;;;;7374098;19;20006;-75
2023/08/17 02:39:06;;;;;;;24.02;12.50;;;;;;;;;;7373546;19;20099;-75
2023/08/17 02:41:32;;;;;;;28.00;14.10;;;;;;;;;;7373214;19;20092;-75
2023/08/17 02:43:57;;;;;;;33.65;16.13;;;;;;;;;;7371332;19;20003;-75
2023/08/17 02:46:23;;;;;;;30.73;15.80;;;;;;;;;;7394258;19;20337;-76
2023/08/17 02:48:49;;;;;;;30.40;15.65;;;;;;;;;;7370567;19;20013;-75
2023/08/17 02:51:15;;;;;;;29.63;15.43;;;;;;;;;;7370180;19;20043;-77
2023/08/17 02:53:40;;;;;;;39.33;16.83;;;;;;;;;;7368389;19;20435;-76
2023/08/17 02:56:06;;;;;;;30.95;15.45;;;;;;;;;;7371487;19;20023;-76
2023/08/17 02:58:31;;;;;;;33.05;16.63;;;;;;;;;;7394707;19;20464;-76
2023/08/17 03:00:56;;;;;;;33.17;16.10;;;;;;;;;;7372877;19;20009;-76
2023/08/17 03:03:21;;;;;;;35.28;16.95;;;;;;;;;;7373684;19;20483;-76
2023/08/17 03:05:47;;;;;;;34.42;16.50;;;;;;;;;;7373431;19;20006;-75
2023/08/17 03:08:12;;;;;;;31.20;16.15;;;;;;;;;;7373184;19;20007;-76
2023/08/17 03:10:37;;;;;;;27.60;15.80;;;;;;;;;;7395805;19;20010;-76
2023/08/17 03:13:03;;;;;;;32.10;16.15;;;;;;;;;;7371731;19;20006;-76
2023/08/17 03:15:29;;;;;;;31.42;16.75;;;;;;;;;;7372707;19;20085;-76
2023/08/17 03:17:54;;;;;;;30.15;16.25;;;;;;;;;;7374138;19;20631;-76
2023/08/17 03:20:19;;;;;;;27.73;16.08;;;;;;;;;;7373224;19;20002;-75
2023/08/17 03:22:45;;;;;;;32.63;16.35;;;;;;;;;;7372868;19;20347;-76
2023/08/17 03:25:10;;;;;;;28.23;16.02;;;;;;;;;;7392655;19;20002;-75
2023/08/17 03:27:36;;;;;;;28.92;16.85;;;;;;;;;;7372824;19;20020;-75
2023/08/17 03:30:02;;;;;;;36.35;16.70;;;;;;;;;;7373962;19;20006;-75
2023/08/17 03:32:28;;;;;;;35.60;17.60;;;;;;;;;;7373366;19;20086;-76
2023/08/17 03:34:53;;;;;;;33.05;16.95;;;;;;;;;;7371812;19;20006;-76
2023/08/17 03:37:18;;;;;;;30.33;15.88;;;;;;;;;;7395012;19;20377;-76
2023/08/17 03:39:44;;;;;;;32.20;16.13;;;;;;;;;;7372174;19;20006;-76
2023/08/17 03:42:09;;;;;;;32.08;15.73;;;;;;;;;;7372445;19;20035;-77
2023/08/17 03:44:34;;;;;;;31.50;15.93;;;;;;;;;;7367886;19;20011;-76
2023/08/17 03:47:00;;;;;;;32.30;16.60;;;;;;;;;;7373070;19;19995;-76
2023/08/17 03:49:25;;;;;;;39.55;19.40;;;;;;;;;;7394476;19;20897;-75
2023/08/17 03:51:50;;;;;;;39.28;18.73;;;;;;;;;;7371449;19;20007;-75
2023/08/17 03:54:17;;;;;;;42.63;19.92;;;;;;;;;;7371029;19;20585;-75
2023/08/17 03:56:42;;;;;;;45.17;20.98;;;;;;;;;;7371799;19;20499;-76
2023/08/17 03:59:07;;;;;;;44.30;19.85;;;;;;;;;;7372811;19;20014;-76
2023/08/17 04:01:33;;;;;;;41.83;21.20;;;;;;;;;;7391939;19;20005;-76
2023/08/17 04:03:58;;;;;;;41.67;19.35;;;;;;;;;;7370464;19;20455;-76
2023/08/17 04:06:23;;;;;;;45.08;19.27;;;;;;;;;;7369891;19;20010;-76
2023/08/17 04:08:49;;;;;;;37.60;18.77;;;;;;;;;;7369841;19;20006;-76
2023/08/17 04:11:14;;;;;;;39.38;19.65;;;;;;;;;;7367508;19;20010;-75
2023/08/17 04:13:39;;;;;;;41.97;18.80;;;;;;;;;;7387737;19;20019;-75
2023/08/17 04:16:05;;;;;;;38.25;19.67;;;;;;;;;;7377620;19;20031;-75
2023/08/17 04:18:30;;;;;;;35.60;17.98;;;;;;;;;;7370868;19;20055;-76
2023/08/17 04:20:55;;;;;;;33.97;18.05;;;;;;;;;;7368983;19;20151;-76
2023/08/17 04:23:21;;;;;;;31.02;17.13;;;;;;;;;;7368963;19;20006;-75
2023/08/17 04:25:46;;;;;;;28.65;16.17;;;;;;;;;;7367022;19;20011;-75
2023/08/17 04:28:12;;;;;;;33.47;17.73;;;;;;;;;;7388729;19;20066;-75
2023/08/17 04:30:38;;;;;;;28.80;16.23;;;;;;;;;;7370558;19;20014;-75
2023/08/17 04:33:03;;;;;;;31.98;15.07;;;;;;;;;;7370506;19;20141;-75
2023/08/17 04:35:29;;;;;;;26.75;14.65;;;;;;;;;;7368696;19;20031;-75
2023/08/17 04:37:54;;;;;;;19.08;11.90;;;;;;;;;;7369634;19;20358;-75
2023/08/17 04:40:19;;;;;;;18.80;11.73;;;;;;;;;;7389799;19;20406;-75
2023/08/17 04:42:45;;;;;;;19.52;10.98;;;;;;;;;;7367732;19;20014;-73
2023/08/17 04:45:10;;;;;;;16.80;10.23;;;;;;;;;;7366869;19;20279;-76
2023/08/17 04:47:35;;;;;;;15.10;9.25;;;;;;;;;;7365718;19;20139;-74
2023/08/17 04:50:01;;;;;;;13.60;9.10;;;;;;;;;;7366833;19;20073;-74
2023/08/17 04:52:26;;;;;;;15.10;8.65;;;;;;;;;;7385365;19;20006;-73
2023/08/17 04:54:51;;;;;;;12.15;8.13;;;;;;;;;;7363509;19;20035;-74
2023/08/17 04:57:18;;;;;;;13.52;7.13;;;;;;;;;;7368153;19;20011;-74
2023/08/17 04:59:44;;;;;;;12.18;7.28;;;;;;;;;;7368201;19;20006;-75
2023/08/17 05:02:09;;;;;;;12.38;6.25;;;;;;;;;;7367192;19;20018;-74
2023/08/17 05:04:35;;;;;;;8.88;5.68;;;;;;;;;;7388021;19;20014;-75
2023/08/17 05:07:00;;;;;;;8.85;4.65;;;;;;;;;;7370793;19;20010;-74
2023/08/17 05:09:27;;;;;;;7.88;4.38;;;;;;;;;;7371106;19;20010;-74
2023/08/17 05:11:52;;;;;;;6.47;3.75;;;;;;;;;;7371045;19;20014;-74
2023/08/17 05:14:17;;;;;;;11.10;3.33;;;;;;;;;;7371485;19;20039;-75
2023/08/17 05:16:43;;;;;;;9.57;3.63;;;;;;;;;;7371001;19;20009;-74
2023/08/17 05:19:08;;;;;;;7.00;3.72;;;;;;;;;;7391737;19;20003;-66
2023/08/17 05:21:34;;;;;;;7.65;3.42;;;;;;;;;;7370044;19;20015;-66
2023/08/17 05:24:00;;;;;;;6.63;3.50;;;;;;;;;;7368958;19;20041;-66
2023/08/17 05:26:25;;;;;;;5.53;3.38;;;;;;;;;;7370339;19;20437;-67
2023/08/17 05:28:50;;;;;;;4.78;3.10;;;;;;;;;;7368956;19;20123;-66
2023/08/17 05:31:16;;;;;;;8.25;3.50;;;;;;;;;;7375541;19;19998;-66
2023/08/17 05:33:41;;;;;;;8.30;3.50;;;;;;;;;;7362333;19;20006;-65
2023/08/17 05:36:07;;;;;;;5.30;3.03;;;;;;;;;;7367925;19;20023;-66
2023/08/17 05:38:33;;;;;;;8.27;3.13;;;;;;;;;;7368205;19;20065;-65
2023/08/17 05:40:58;;;;;;;6.47;3.30;;;;;;;;;;7368937;19;20019;-66
2023/08/17 05:43:24;;;;;;;7.15;2.90;;;;;;;;;;7390047;19;20511;-66
2023/08/17 05:45:50;;;;;;;8.10;3.17;;;;;;;;;;7368547;19;20519;-66
2023/08/17 05:48:15;;;;;;;4.28;2.67;;;;;;;;;;7369013;19;20014;-66
2023/08/17 05:50:43;;;;;;;5.93;3.03;;;;;;;;;;7368745;19;20078;-66
2023/08/17 05:53:09;;;;;;;5.53;2.92;;;;;;;;;;7368306;19;20002;-66
2023/08/17 05:55:34;;;;;;;4.95;2.97;;;;;;;;;;7388170;19;20501;-66
2023/08/17 05:58:00;;;;;;;5.18;2.53;;;;;;;;;;7368588;19;20031;-66
2023/08/17 06:00:25;;;;;;;4.53;2.40;;;;;;;;;;7372814;19;20011;-66
2023/08/17 06:02:51;;;;;;;4.05;2.40;;;;;;;;;;7370235;19;19999;-66
2023/08/17 06:05:17;;;;;;;5.90;2.33;;;;;;;;;;7367478;19;20002;-66
2023/08/17 06:07:43;;;;;;;5.63;2.30;;;;;;;;;;7370959;19;19994;-66
2023/08/17 06:10:09;;;;;;;5.53;2.30;;;;;;;;;;7399009;19;20006;-66
2023/08/17 06:12:34;;;;;;;6.72;2.40;;;;;;;;;;7373692;19;20453;-66
2023/08/17 06:15:01;;;;;;;4.70;2.45;;;;;;;;;;7374210;19;20010;-66
2023/08/17 06:17:27;;;;;;;4.70;2.20;;;;;;;;;;7375087;19;20006;-66
2023/08/17 06:19:52;;;;;;;5.45;2.33;;;;;;;;;;7374705;19;20023;-66
2023/08/17 06:22:17;;;;;;;8.32;2.80;;;;;;;;;;7396172;19;20002;-66
2023/08/17 06:24:43;;;;;;;4.45;2.40;;;;;;;;;;7370886;19;20413;-66
2023/08/17 06:27:08;;;;;;;6.70;2.50;;;;;;;;;;7372635;19;20458;-66
2023/08/17 06:29:33;;;;;;;6.60;2.40;;;;;;;;;;7374346;19;20038;-66
2023/08/17 06:31:59;;;;;;;7.10;2.42;;;;;;;;;;7375279;19;20014;-66
2023/08/17 06:34:24;;;;;;;5.00;2.20;;;;;;;;;;7392941;19;20011;-66
2023/08/17 06:37:01;;;;;;;5.57;2.53;;;;;;;;;;7375895;19;20011;-66
2023/08/17 06:39:27;;;;;;;11.18;2.65;;;;;;;;;;7373550;19;20021;-67
2023/08/17 06:41:53;;;;;;;7.80;2.90;;;;;;;;;;7374866;19;20002;-66
2023/08/17 06:44:18;;;;;;;4.78;2.30;;;;;;;;;;7373445;19;20652;-67
2023/08/17 06:46:44;;;;;;;5.72;2.65;;;;;;;;;;7374852;19;20006;-67
2023/08/17 06:49:11;;;;;;;7.95;2.63;;;;;;;;;;7396179;19;19995;-67
2023/08/17 06:51:36;;;;;;;12.48;2.85;;;;;;;;;;7374498;19;20017;-68
2023/08/17 06:54:01;;;;;;;6.03;2.28;;;;;;;;;;7372366;19;20002;-67
2023/08/17 06:56:27;;;;;;;6.45;2.85;;;;;;;;;;7374287;19;20472;-67
2023/08/17 06:58:52;;;;;;;4.10;2.53;;;;;;;;;;7374627;19;20023;-67
2023/08/17 07:01:18;;;;;;;8.50;2.67;;;;;;;;;;7394854;19;20595;-66
2023/08/17 07:03:43;;;;;;;13.25;3.10;;;;;;;;;;7373487;19;20006;-67
2023/08/17 07:06:09;;;;;;;9.48;2.72;;;;;;;;;;7376001;19;20023;-67
2023/08/17 07:08:34;;;;;;;5.05;2.47;;;;;;;;;;7376919;19;20583;-67
2023/08/17 07:11:00;;;;;;;8.35;2.92;;;;;;;;;;7378669;19;20033;-66
2023/08/17 07:13:25;;;;;;;5.20;2.80;;;;;;;;;;7395157;19;20122;-66
2023/08/17 07:15:50;;;;;;;5.40;3.03;;;;;;;;;;7372371;19;20078;-66
2023/08/17 07:18:16;;;;;;;11.90;3.40;;;;;;;;;;7369997;19;20451;-66
2023/08/17 07:20:41;;;;;;;7.18;2.67;;;;;;;;;;7372351;19;20003;-67
2023/08/17 07:23:07;;;;;;;6.55;2.90;;;;;;;;;;7371569;19;20006;-67
2023/08/17 07:25:32;;;;;;;7.93;3.33;;;;;;;;;;7390586;19;20018;-66
2023/08/17 07:27:58;;;;;;;6.70;3.55;;;;;;;;;;7372484;19;20082;-66
2023/08/17 07:30:23;;;;;;;5.25;2.95;;;;;;;;;;7371790;19;20023;-67
2023/08/17 07:32:49;;;;;;;7.40;3.10;;;;;;;;;;7373212;19;20020;-66
2023/08/17 07:35:14;;;;;;;7.53;3.42;;;;;;;;;;7370164;19;20058;-66
2023/08/17 07:37:39;;;;;;;4.72;3.40;;;;;;;;;;7393066;19;20033;-66
2023/08/17 07:40:05;;;;;;;4.90;3.35;;;;;;;;;;7376734;19;20006;-66
2023/08/17 07:42:31;;;;;;;4.68;3.50;;;;;;;;;;7372749;19;20039;-67
2023/08/17 07:44:56;;;;;;;7.03;3.22;;;;;;;;;;7371287;19;20018;-67
2023/08/17 07:47:21;;;;;;;6.63;3.33;;;;;;;;;;7372913;19;20013;-66
2023/08/17 07:49:47;;;;;;;7.78;3.92;;;;;;;;;;7372147;19;20006;-67
2023/08/17 07:52:12;;;;;;;6.50;3.25;;;;;;;;;;7392888;19;20011;-67
2023/08/17 07:54:37;;;;;;;9.00;4.38;;;;;;;;;;7369232;19;20443;-67
2023/08/17 07:57:03;;;;;;;17.50;4.75;;;;;;;;;;7372077;19;20010;-66
2023/08/17 07:59:29;;;;;;;13.88;4.70;;;;;;;;;;7372822;19;20016;-66
2023/08/17 08:01:54;;;;;;;11.68;4.55;;;;;;;;;;7370072;19;20022;-66
2023/08/17 08:04:19;;;;;;;8.82;3.97;;;;;;;;;;7391871;19;20003;-66
2023/08/17 08:06:46;;;;;;;5.65;3.70;;;;;;;;;;7367851;19;20589;-66
2023/08/17 08:09:11;;;;;;;6.95;3.58;;;;;;;;;;7372287;19;20014;-66
2023/08/17 08:11:36;;;;;;;6.85;4.15;;;;;;;;;;7371718;19;20509;-66
2023/08/17 08:14:02;;;;;;;7.95;3.88;;;;;;;;;;7370894;19;20086;-65
2023/08/17 08:16:30;;;;;;;6.13;3.30;;;;;;;;;;7393640;19;20003;-66
2023/08/17 08:18:55;;;;;;;8.23;3.38;;;;;;;;;;7371196;19;20013;-66
2023/08/17 08:21:21;;;;;;;5.25;3.10;;;;;;;;;;7371446;19;20010;-66
2023/08/17 08:23:46;;;;;;;7.00;3.88;;;;;;;;;;7369001;19;20519;-66
2023/08/17 08:26:11;;;;;;;7.05;3.90;;;;;;;;;;7371561;19;20007;-67
2023/08/17 08:28:37;;;;;;;5.03;3.42;;;;;;;;;;7393349;19;20019;-67
2023/08/17 08:31:03;;;;;;;6.93;3.40;;;;;;;;;;7368751;19;20006;-65
2023/08/17 08:33:29;;;;;;;6.88;3.88;;;;;;;;;;7369810;19;20015;-66
2023/08/17 08:35:54;;;;;;;8.13;4.28;;;;;;;;;;7369769;19;20041;-66
2023/08/17 08:38:20;;;;;;;6.10;3.95;;;;;;;;;;7371936;19;20481;-67
2023/08/17 08:40:47;;;;;;;7.22;4.07;;;;;;;;;;7370922;19;19995;-66
2023/08/17 08:43:12;;;;;;;7.57;4.00;;;;;;;;;;7392346;19;20019;-66
2023/08/17 08:45:41;;;;;;;6.22;3.40;;;;;;;;;;7369852;19;20011;-66
2023/08/17 08:48:08;;;;;;;6.13;3.60;;;;;;;;;;7371038;19;20006;-66
2023/08/17 08:50:35;;;;;;;5.93;3.50;;;;;;;;;;7369906;19;20010;-66
2023/08/17 08:53:04;;;;;;;6.88;3.85;;;;;;;;;;7369062;19;20007;-65
2023/08/17 08:55:33;;;;;;;10.80;3.85;;;;;;;;;;7382807;19;20037;-66
2023/08/17 08:57:59;;;;;;;6.57;4.00;;;;;;;;;;7369728;19;20010;-65
2023/08/17 09:00:26;;;;;;;7.30;3.83;;;;;;;;;;7369932;19;20025;-66
2023/08/17 09:02:51;;;;;;;7.07;3.90;;;;;;;;;;7368853;19;19998;-66
2023/08/17 09:05:21;;;;;;;9.23;4.13;;;;;;;;;;7368180;19;20002;-66
2023/08/17 09:07:48;;;;;;;6.78;4.70;;;;;;;;;;7370283;19;20074;-66
2023/08/17 09:10:16;;;;;;;6.28;4.38;;;;;;;;;;7391050;19;20002;-67
2023/08/17 09:12:41;;;;;;;10.50;4.75;;;;;;;;;;7367456;19;20006;-67
2023/08/17 09:15:07;;;;;;;7.68;4.18;;;;;;;;;;7369461;19;20050;-68
2023/08/17 09:17:35;;;;;;;6.15;4.05;;;;;;;;;;7370213;19;20588;-67
2023/08/17 09:20:02;;;;;;;8.00;4.25;;;;;;;;;;7369301;19;20003;-67
2023/08/17 09:22:39;;;;;;;6.60;4.85;;;;;;;;;;7391684;19;20002;-67
2023/08/17 09:25:05;;;;;;;7.55;4.38;;;;;;;;;;7366644;19;20097;-67
2023/08/17 09:27:32;;;;;;;6.22;4.50;;;;;;;;;;7368282;19;20013;-66
2023/08/17 09:30:05;;;;;;;5.63;4.10;;;;;;;;;;7368146;19;20043;-67
2023/08/17 09:32:31;;;;;;;6.30;3.97;;;;;;;;;;7369123;19;20010;-67
2023/08/17 09:34:57;;;;;;;5.07;3.88;;;;;;;;;;7367047;19;20006;-66
2023/08/17 09:37:22;;;;;;;7.05;4.70;;;;;;;;;;7390592;19;20410;-66
2023/08/17 09:39:48;;;;;;;8.48;4.88;;;;;;;;;;7367622;19;20011;-67
2023/08/17 09:42:17;;;;;;;6.70;4.50;;;;;;;;;;7368360;19;20034;-67
2023/08/17 09:44:43;;;;;;;4.73;3.67;;;;;;;;;;7367141;19;20002;-67
2023/08/17 09:47:10;;;;;;;5.82;3.30;;;;;;;;;;7367757;19;20232;-66
2023/08/17 09:49:35;;;;;;;5.50;4.00;;;;;;;;;;7387387;19;20002;-66
2023/08/17 09:52:02;;;;;;;6.15;3.60;;;;;;;;;;7364467;19;20010;-66
2023/08/17 09:54:30;;;;;;;5.40;3.33;;;;;;;;;;7363771;19;20121;-67
2023/08/17 09:56:57;;;;;;;6.07;3.92;;;;;;;;;;7365659;19;20027;-66
2023/08/17 09:59:23;;;;;;;6.97;4.20;;;;;;;;;;7368736;19;20003;-67
2023/08/17 10:01:50;;;;;;;8.88;4.53;;;;;;;;;;7367672;19;20342;-67
2023/08/17 10:04:21;;;;;;;5.60;4.18;;;;;;;;;;7391100;19;20010;-68
2023/08/17 10:06:51;;;;;;;7.25;3.60;;;;;;;;;;7368478;19;20010;-68
2023/08/17 10:09:23;;;;;;;5.72;3.70;;;;;;;;;;7368629;19;20500;-67
2023/08/17 10:11:51;;;;;;;6.25;3.30;;;;;;;;;;7367715;19;20018;-67
2023/08/17 10:14:23;;;;;;;5.10;3.20;;;;;;;;;;7366946;19;20003;-67
2023/08/17 10:17:00;;;;;;;6.88;3.10;;;;;;;;;;7366533;19;19999;-68
2023/08/17 10:19:44;;;;;;;4.13;2.83;;;;;;;;;;7390113;19;20358;-68
2023/08/17 10:22:12;;;;;;;4.90;3.10;;;;;;;;;;7367144;19;20070;-68
2023/08/17 10:24:38;;;;;;;6.05;3.17;;;;;;;;;;7364645;19;20110;-69
2023/08/17 10:27:05;;;;;;;5.25;3.50;;;;;;;;;;7366442;19;20029;-68
2023/08/17 10:29:32;;;;;;;4.45;2.80;;;;;;;;;;7366752;19;20040;-68
2023/08/17 10:31:59;;;;;;;4.95;2.97;;;;;;;;;;7367034;19;20023;-68
2023/08/17 10:34:25;;;;;;;7.65;3.17;;;;;;;;;;7387996;19;20039;-67
2023/08/17 10:36:51;;;;;;;5.68;3.03;;;;;;;;;;7366841;19;20015;-67
2023/08/17 10:39:25;;;;;;;5.80;2.83;;;;;;;;;;7367920;19;20082;-66
2023/08/17 10:41:51;;;;;;;4.63;2.70;;;;;;;;;;7367348;19;20038;-68
2023/08/17 10:44:18;;;;;;;4.95;2.80;;;;;;;;;;7366433;19;20006;-68
2023/08/17 10:46:45;;;;;;;7.05;2.47;;;;;;;;;;7366447;19;20856;-68
2023/08/17 10:49:27;;;;;;;4.43;2.58;;;;;;;;;;7389579;19;20009;-68
2023/08/17 10:52:07;;;;;;;4.85;2.05;;;;;;;;;;7366398;19;20091;-68
2023/08/17 10:54:40;;;;;;;5.18;2.80;;;;;;;;;;7369274;19;20014;-68
2023/08/17 10:57:40;;;;;;;4.53;2.40;;;;;;;;;;7373773;19;20548;-68
2023/08/17 11:00:31;;;;;;;5.60;2.67;;;;;;;;;;7374729;19;20014;-67
2023/08/17 11:03:05;;;;;;;4.88;2.67;;;;;;;;;;7372735;19;20029;-68
2023/08/17 11:05:43;;;;;;;6.13;2.72;;;;;;;;;;7370146;19;20643;-68
2023/08/17 11:08:20;;;;;;;4.85;2.60;;;;;;;;;;7374228;19;20047;-70
2023/08/17 11:11:04;;;;;;;4.03;2.42;;;;;;;;;;7374046;19;20009;-69
2023/08/17 11:13:31;;;;;;;6.57;2.70;;;;;;;;;;7392293;19;20005;-69
2023/08/17 11:15:58;;;;;;;7.97;2.63;;;;;;;;;;7372319;19;20504;-67
2023/08/17 11:18:23;;;;;;;6.20;2.65;;;;;;;;;;7373934;19;20015;-68
2023/08/17 11:20:49;;;;;;;4.07;2.50;;;;;;;;;;7373279;19;20006;-68
2023/08/17 11:23:15;;;;;;;4.88;2.80;;;;;;;;;;7372999;19;20442;-68
2023/08/17 11:25:42;;;;;;;6.18;2.85;;;;;;;;;;7387151;19;20011;-69
2023/08/17 11:28:08;;;;;;;3.85;2.40;;;;;;;;;;7395140;19;20126;-69
2023/08/17 11:30:36;;;;;;;5.60;2.20;;;;;;;;;;7373190;19;20027;-68
2023/08/17 11:33:02;;;;;;;4.80;2.60;;;;;;;;;;7362504;19;20014;-68
2023/08/17 11:35:28;;;;;;;4.70;2.70;;;;;;;;;;7369108;19;20010;-68
2023/08/17 11:37:53;;;;;;;6.78;2.88;;;;;;;;;;7372574;19;20007;-68
2023/08/17 11:40:19;;;;;;;7.22;2.80;;;;;;;;;;7394320;19;20007;-69
2023/08/17 11:42:45;;;;;;;5.10;2.60;;;;;;;;;;7371695;19;20007;-68
2023/08/17 11:45:12;;;;;;;5.15;2.72;;;;;;;;;;7370429;19;20102;-69
2023/08/17 11:47:41;;;;;;;4.13;2.50;;;;;;;;;;7372277;19;20473;-70
2023/08/17 11:50:08;;;;;;;5.28;2.50;;;;;;;;;;7372995;19;20007;-69
2023/08/17 11:52:36;;;;;;;6.00;2.58;;;;;;;;;;7393491;19;20006;-68
2023/08/17 11:55:02;;;;;;;4.50;2.33;;;;;;;;;;7368869;19;20018;-68
2023/08/17 11:57:29;;;;;;;4.28;2.35;;;;;;;;;;7370926;19;20414;-68
2023/08/17 11:59:56;;;;;;;4.50;2.80;;;;;;;;;;7372016;19;20022;-68
2023/08/17 12:02:25;;;;;;;5.25;2.60;;;;;;;;;;7370935;19;20380;-68
2023/08/17 12:04:52;;;;;;;3.50;2.60;;;;;;;;;;7366792;19;20469;-69
2023/08/17 12:07:18;;;;;;;3.72;2.47;;;;;;;;;;7393463;19;20007;-68
2023/08/17 12:09:45;;;;;;;6.10;2.80;;;;;;;;;;7370491;19;20476;-69
2023/08/17 12:12:11;;;;;;;6.07;2.50;;;;;;;;;;7371655;19;20058;-69
2023/08/17 12:14:36;;;;;;;6.20;2.53;;;;;;;;;;7370761;19;20470;-69
2023/08/17 12:17:02;;;;;;;8.43;3.00;;;;;;;;;;7371062;19;20025;-69
2023/08/17 12:19:29;;;;;;;8.77;3.10;;;;;;;;;;7393176;19;20002;-69
2023/08/17 12:21:54;;;;;;;6.85;2.65;;;;;;;;;;7369682;19;20007;-68
2023/08/17 12:24:19;;;;;;;5.25;2.72;;;;;;;;;;7368836;19;20009;-69
2023/08/17 12:26:46;;;;;;;6.13;3.00;;;;;;;;;;7371985;19;20501;-68
2023/08/17 12:29:11;;;;;;;5.93;2.55;;;;;;;;;;7370835;19;20019;-68
2023/08/17 12:31:37;;;;;;;8.82;2.70;;;;;;;;;;7393084;19;20002;-68
2023/08/17 12:34:03;;;;;;;7.13;2.47;;;;;;;;;;7370383;19;20567;-69
2023/08/17 12:36:28;;;;;;;5.55;2.60;;;;;;;;;;7370711;19;20026;-69
2023/08/17 12:38:55;;;;;;;4.97;2.47;;;;;;;;;;7370986;19;20504;-68
2023/08/17 12:41:20;;;;;;;6.38;2.80;;;;;;;;;;7370006;19;20010;-68
2023/08/17 12:43:46;;;;;;;5.93;2.70;;;;;;;;;;7370672;19;20000;-68
2023/08/17 12:46:11;;;;;;;5.43;2.50;;;;;;;;;;7391011;19;20003;-70
2023/08/17 12:48:37;;;;;;;6.40;2.90;;;;;;;;;;7369855;19;20006;-68
2023/08/17 12:51:03;;;;;;;5.05;2.53;;;;;;;;;;7370676;19;20002;-69
2023/08/17 12:53:28;;;;;;;4.43;2.53;;;;;;;;;;7368862;19;20014;-68
2023/08/17 12:55:53;;;;;;;5.47;2.90;;;;;;;;;;7369772;19;20338;-69
2023/08/17 12:58:19;;;;;;;5.60;3.03;;;;;;;;;;7391941;19;19998;-69
2023/08/17 13:00:44;;;;;;;5.15;2.70;;;;;;;;;;7368198;19;20456;-68
2023/08/17 13:03:09;;;;;;;6.30;3.13;;;;;;;;;;7369292;19;20689;-68
2023/08/17 13:05:35;;;;;;;5.07;3.20;;;;;;;;;;7366850;19;20006;-68
2023/08/17 13:08:00;;;;;;;6.10;3.00;;;;;;;;;;7368638;19;20004;-68
2023/08/17 13:10:25;;;;;;;5.32;2.90;;;;;;;;;;7390593;19;19999;-67
2023/08/17 13:12:54;;;;;;;5.55;3.22;;;;;;;;;;7367681;19;20014;-68
2023/08/17 13:15:21;;;;;;;6.25;3.20;;;;;;;;;;7367172;19;20464;-67
2023/08/17 13:17:46;;;;;;;5.03;2.90;;;;;;;;;;7368075;19;20074;-72
2023/08/17 13:20:12;;;;;;;5.68;3.10;;;;;;;;;;7370085;19;19999;-72
2023/08/17 13:22:37;;;;;;;6.43;2.90;;;;;;;;;;7387550;19;19999;-72
2023/08/17 13:25:03;;;;;;;7.82;2.60;;;;;;;;;;7365167;19;20014;-72
2023/08/17 13:27:28;;;;;;;7.10;3.05;;;;;;;;;;7367354;19;20793;-72
2023/08/17 13:29:53;;;;;;;5.90;2.85;;;;;;;;;;7367435;19;20460;-72
2023/08/17 13:32:18;;;;;;;6.55;2.53;;;;;;;;;;7367386;19;20117;-67
2023/08/17 13:34:44;;;;;;;10.77;3.28;;;;;;;;;;7366792;19;20066;-70
2023/08/17 13:37:09;;;;;;;10.43;2.70;;;;;;;;;;7389580;19;20005;-67
2023/08/17 13:39:34;;;;;;;9.88;3.17;;;;;;;;;;7368650;19;20010;-66
2023/08/17 13:42:00;;;;;;;9.20;3.88;;;;;;;;;;7368731;19;20022;-68
2023/08/17 13:44:25;;;;;;;6.93;2.63;;;;;;;;;;7366741;19;20018;-66
2023/08/17 13:46:50;;;;;;;12.38;3.10;;;;;;;;;;7367593;19;20006;-67
2023/08/17 13:49:16;;;;;;;6.32;2.92;;;;;;;;;;7388619;19;20002;-66
2023/08/17 13:51:41;;;;;;;7.05;2.70;;;;;;;;;;7368877;19;20476;-67
2023/08/17 13:54:09;;;;;;;7.10;2.60;;;;;;;;;;7366188;19;20028;-66
2023/08/17 13:56:35;;;;;;;9.90;2.97;;;;;;;;;;7366984;19;20619;-67
2023/08/17 13:59:00;;;;;;;12.85;3.58;;;;;;;;;;7366131;19;20004;-66
2023/08/17 14:01:25;;;;;;;5.88;2.33;;;;;;;;;;7386681;19;20708;-67
2023/08/17 14:03:51;;;;;;;5.68;2.20;;;;;;;;;;7364675;19;20078;-66
2023/08/17 14:06:16;;;;;;;4.57;2.33;;;;;;;;;;7366869;19;20007;-67
2023/08/17 14:08:42;;;;;;;4.82;2.10;;;;;;;;;;7367470;19;20021;-66
2023/08/17 14:11:08;;;;;;;5.25;2.20;;;;;;;;;;7370146;19;20018;-69
2023/08/17 14:13:34;;;;;;;4.63;2.17;;;;;;;;;;7389703;19;20021;-67
2023/08/17 14:15:59;;;;;;;5.93;2.08;;;;;;;;;;7366315;19;20019;-66
2023/08/17 14:18:25;;;;;;;3.55;2.00;;;;;;;;;;7365371;19;20122;-66
2023/08/17 14:20:50;;;;;;;4.30;2.22;;;;;;;;;;7364892;19;20014;-66
2023/08/17 14:23:15;;;;;;;7.53;2.40;;;;;;;;;;7365621;19;20070;-66
2023/08/17 14:25:41;;;;;;;6.82;2.50;;;;;;;;;;7372175;19;20026;-65
2023/08/17 14:28:07;;;;;;;3.78;2.30;;;;;;;;;;7383659;19;20006;-66
2023/08/17 14:30:33;;;;;;;6.72;2.35;;;;;;;;;;7372294;19;20058;-67
2023/08/17 14:32:58;;;;;;;4.55;2.22;;;;;;;;;;7371064;19;20021;-73